• Join FlightAware (Why Join?)
  • Login
  • US Flag 
06:06PM EST


 

Airport Tracker/Info


-or-


 

Live Flight TrackerFlight Track Log ✈ N20WE ✈ 02-Sep-2013 ✈ KGLD - KRAL

Flight Track Log - Related Links

Times and Time Zones

All times are in EDT time to prevent confusion due to time zone crossing. See the N20WE flight status page for this flight to view local times or setup timezone preferences in your user account.

Time Position Orientation Groundspeed Altitude Reporting Facility
EDT Latitude Longitude Course Direction KTS MPH feet Rate Location/Type
04:00PM 39.3017 -101.8261 254° West 151 174 9,600  Level Denver Center
04:01PM 39.2892 -101.8839 254° West 157 181 10,300 780 Climbing Denver Center
04:02PM 39.2706 -101.9644 253° West 179 206 11,500 1,140 Climbing Denver Center
04:03PM 39.2519 -102.0342 251° West 183 211 12,700 840 Climbing Denver Center
04:04PM 39.2358 -102.0894 249° West 175 201 13,500 780 Climbing Denver Center
04:05PM 39.2136 -102.1736 251° West 194 223 14,500 900 Climbing Denver Center
04:06PM 39.1978 -102.2369 252° West 194 223 15,400 900 Climbing Denver Center
04:07PM 39.1778 -102.3100 251° West 195 224 16,400 840 Climbing Denver Center
04:08PM 39.1617 -102.3731 252° West 195 224 17,200 720 Climbing Denver Center
04:09PM 39.1433 -102.4436 251° West 188 216 18,000 720 Climbing Denver Center
04:10PM 39.1267 -102.5031 250° West 184 212 18,800 780 Climbing Denver Center
04:11PM 39.1103 -102.5700 253° West 176 203 19,700 600 Climbing Denver Center
04:12PM 39.0989 -102.6147 252° West 174 200 20,100 120 Climbing Denver Center
04:13PM 39.0756 -102.7064 252° West 208 239 20,000 -60 Descending Denver Center
04:14PM 39.0581 -102.7772 252° West 220 253 20,000  Level Denver Center
04:15PM 39.0381 -102.8542 252° West 227 261 20,000  Level Denver Center
04:17PM 39.0167 -102.9325 251° West 231 266 20,000  Level Denver Center
04:18PM 38.9919 -103.0244 251° West 228 262 20,000  Level Denver Center
04:19PM 38.9714 -103.1017 251° West 228 262 20,000  Level Denver Center
04:20PM 38.9506 -103.1792 251° West 230 265 20,000  Level Denver Center
04:21PM 38.9292 -103.2564 250° West 229 264 20,000  Level Denver Center
04:22PM 38.9089 -103.3328 251° West 228 262 20,000  Level Denver Center
04:23PM 38.8881 -103.4103 251° West 230 265 20,000  Level Denver Center
04:24PM 38.8625 -103.5022 250° West 230 265 20,000  Level Denver Center
04:25PM 38.8428 -103.5769 251° West 229 264 20,000  Level Denver Center
04:26PM 38.8186 -103.6639 250° West 233 268 20,000  Level Denver Center
04:27PM 38.7953 -103.7517 251° West 233 268 20,100 60 Climbing Denver Center
04:28PM 38.7708 -103.8364 250° West 230 265 20,200  Climbing Denver Center
04:29PM 38.7514 -103.9094 251° West 228 262 20,200  Level Denver Center
04:30PM 38.7272 -103.9967 250° West 232 267 20,200 180 Level Denver Center
04:31PM 38.7067 -104.0692 250° West 229 264 20,600 360 Climbing Denver Center
04:32PM 38.6836 -104.1489 250° West 219 252 21,000 240 Climbing Denver Center
04:33PM 38.6642 -104.2183 250° West 217 250 21,200 240 Climbing Denver Center
04:34PM 38.6419 -104.3003 251° West 218 251 21,500 240 Climbing Denver Center
04:35PM 38.6244 -104.3583 249° West 219 252 21,800 180 Climbing Denver Center
04:37PM 38.5986 -104.4497 250° West 216 249 22,000 60 Climbing Denver Center
04:38PM 38.5753 -104.5339 250° West 221 254 22,000  Level Denver Center
04:39PM 38.5514 -104.6200 250° West 228 262 22,000  Level Denver Center
04:40PM 38.5306 -104.6942 250° West 231 266 22,000  Level Denver Center
04:41PM 38.5050 -104.7806 249° West 232 267 22,000  Level Denver Center
04:42PM 38.4839 -104.8533 250° West 230 265 22,000  Level Denver Center
04:43PM 38.4561 -104.9514 250° West 231 266 22,000  Level Denver Center
04:44PM 38.4314 -105.0364 250° West 229 264 22,000 60 Level Denver Center
04:45PM 38.4106 -105.1094 250° West 229 264 22,200 240 Climbing Denver Center
04:46PM 38.3939 -105.1661 249° West 223 257 22,600 360 Climbing Denver Center
04:47PM 38.3672 -105.2517 248° West 207 238 23,000 300 Climbing Denver Center
04:48PM 38.3483 -105.3181 250° West 208 239 23,300 240 Climbing Denver Center
04:49PM 38.3208 -105.3931 245° Southwest 210 242 23,600 240 Climbing Denver Center
04:50PM 38.2942 -105.4556 241° Southwest 209 241 23,900 180 Climbing Denver Center
04:51PM 38.2622 -105.5300 241° Southwest 214 246 24,000  Climbing Denver Center
04:52PM 38.2372 -105.5978 245° Southwest 221 254 24,000  Level Denver Center
04:53PM 38.2108 -105.6797 248° West 224 258 24,000  Level Denver Center
04:54PM 38.1917 -105.7383 247° West 226 260 24,000  Level Denver Center
04:55PM 38.1522 -105.8292 241° Southwest 230 265 24,000  Level Denver Center
04:56PM 38.1225 -105.8972 241° Southwest 231 266 24,000 60 Level Denver Center
04:57PM 38.0881 -105.9778 242° Southwest 232 267 24,200 360 Climbing Denver Center
04:59PM 38.0603 -106.0417 241° Southwest 220 253 24,800 420 Climbing Denver Center
05:00PM 38.0322 -106.1122 243° Southwest 207 238 25,100 240 Climbing Denver Center
05:01PM 38.0050 -106.1747 241° Southwest 210 242 25,400 240 Climbing Denver Center
05:02PM 37.9794 -106.2508 247° West 211 243 25,700 240 Climbing Denver Center
05:03PM 37.9589 -106.3161 248° West 209 241 26,000 120 Climbing Denver Center
05:04PM 37.9386 -106.3936 252° West 207 238 26,000  Level Denver Center
05:05PM 37.9169 -106.4633 249° West 217 250 26,000  Level Denver Center
05:06PM 37.8919 -106.5422 248° West 221 254 26,100  Climbing Denver Center
05:07PM 37.8683 -106.6267 251° West 226 260 26,000 -60 Descending Denver Center
05:08PM 37.8433 -106.7128 250° West 232 267 26,000  Level Denver Center
05:09PM 37.8222 -106.7842 249° West 229 264 26,000  Level Denver Center
05:10PM 37.7975 -106.8681 250° West 227 261 26,000  Level Denver Center
05:11PM 37.7767 -106.9375 249° West 223 257 26,000  Level Denver Center
05:12PM 37.7517 -107.0189 249° West 223 257 26,000  Level Denver Center
05:13PM 37.7308 -107.0892 249° West 224 258 26,000  Level Denver Center
05:14PM 37.7058 -107.1722 249° West 228 262 26,000  Level Denver Center
05:15PM 37.6825 -107.2444 248° West 231 266 26,000  Level Denver Center
05:16PM 37.6569 -107.3261 248° West 226 260 26,000  Level Denver Center
05:17PM 37.6419 -107.3994 256° West 226 260 26,000  Level Denver Center
05:18PM 37.6228 -107.4853 254° West 227 261 26,000  Level Denver Center
05:19PM 37.6011 -107.5558 249° West 226 260 26,000  Level Denver Center
05:20PM 37.5764 -107.6403 250° West 229 264 26,000  Level Denver Center
05:21PM 37.5533 -107.7117 248° West 230 265 26,000  Level Denver Center
05:23PM 37.5389 -107.8006 258° West 230 265 26,000  Level Denver Center
05:24PM 37.5139 -107.8667 245° Southwest 226 260 26,000  Level Denver Center
05:25PM 37.4878 -107.9497 248° West 227 261 26,000  Level Denver Center
05:26PM 37.4644 -108.0194 247° West 226 260 26,000  Level Denver Center
05:27PM 37.4411 -108.0908 248° West 228 262 26,000  Level Denver Center
05:28PM 37.4142 -108.1708 247° West 226 260 26,000  Level Denver Center
05:29PM 37.3928 -108.2403 249° West 224 258 26,000  Level Denver Center
05:30PM 37.3672 -108.3197 248° West 221 254 26,000  Level Denver Center
05:31PM 37.3458 -108.3886 249° West 220 253 26,000  Level Denver Center
05:32PM 37.3225 -108.4714 251° West 224 258 26,000  Level Denver Center
05:33PM 37.3008 -108.5394 248° West 221 254 26,000  Level Denver Center
05:34PM 37.2767 -108.6175 249° West 217 250 26,000  Level Denver Center
05:35PM 37.2558 -108.6869 249° West 219 252 26,000  Level Denver Center
05:36PM 37.2319 -108.7708 250° West 225 259 26,000  Level Denver Center
05:37PM 37.2133 -108.8397 251° West 221 254 26,000  Level Denver Center
05:38PM 37.1894 -108.9200 250° West 220 253 26,000  Level Denver Center
05:39PM 37.1706 -108.9897 251° West 221 254 26,000  Level Denver Center
05:40PM 37.1475 -109.0697 250° West 221 254 26,000  Level Denver Center
05:41PM 37.1275 -109.1375 250° West 218 251 26,000  Level Denver Center
05:42PM 37.1119 -109.1939 251° West 215 247 26,000  Level Denver Center
05:43PM 37.0853 -109.2861 250° West 219 252 26,000  Level Denver Center
05:44PM 37.0636 -109.3647 251° West 217 250 26,000  Level Denver Center
05:45PM 37.0442 -109.4336 251° West 217 250 26,000  Level Denver Center
05:46PM 37.0189 -109.5261 251° West 220 253 26,000  Level Denver Center
05:48PM 37.0022 -109.5833 250° West 219 252 26,000  Level Denver Center
05:49PM 36.9778 -109.6756 252° West 219 252 26,000  Level Denver Center
05:50PM 36.9597 -109.7419 251° West 214 246 26,000  Level Denver Center
05:51PM 36.9383 -109.8206 251° West 213 245 26,000  Level Denver Center
05:52PM 36.9183 -109.8872 249° West 214 246 26,000  Level Denver Center
05:53PM 36.8953 -109.9689 251° West 220 253 26,000  Level Denver Center
05:54PM 36.8778 -110.0372 252° West 219 252 26,000  Level Denver Center
05:55PM 36.8528 -110.1197 249° West 223 257 26,000  Level Denver Center
05:56PM 36.8294 -110.1961 249° West 230 265 26,000  Level Denver Center
05:57PM 36.8078 -110.2700 250° West 228 262 26,100  Climbing Denver Center
05:58PM 36.7875 -110.3431 251° West 224 258 26,000 -60 Descending Denver Center
05:59PM 36.7625 -110.4311 251° West 223 257 26,000  Level Denver Center
06:00PM 36.7417 -110.5039 250° West 222 255 26,000  Level Denver Center
06:01PM 36.7214 -110.5769 251° West 224 258 26,000  Level Denver Center
06:02PM 36.6969 -110.6644 251° West 224 258 26,000  Level Denver Center
06:03PM 36.6786 -110.7367 252° West 221 254 26,000  Level Denver Center
06:04PM 36.6636 -110.7942 252° West 219 252 26,000  Level Denver Center
06:05PM 36.6442 -110.8692 252° West 224 258 26,100  Climbing Denver Center
06:06PM 36.6214 -110.9572 252° West 223 257 26,000 -60 Descending Denver Center
06:07PM 36.6017 -111.0294 251° West 222 255 26,000  Level Denver Center
06:08PM 36.5781 -111.1167 251° West 221 254 26,000  Level Denver Center
06:09PM 36.5575 -111.1900 251° West 223 257 26,000  Level Denver Center
06:10PM 36.5364 -111.2656 251° West 229 264 26,000  Level Denver Center
06:12PM 36.5133 -111.3378 248° West 225 259 26,000  Level Denver Center
06:13PM 36.4939 -111.4114 252° West 224 258 26,000  Level Denver Center
06:14PM 36.4731 -111.4864 251° West 228 262 26,000  Level Denver Center
06:15PM 36.4500 -111.5761 252° West 229 264 26,000  Level Denver Center
06:16PM 36.4297 -111.6525 252° West 232 267 26,000  Level Los Angeles Center
06:17PM 36.4086 -111.7272 251° West 229 264 26,100  Climbing Los Angeles Center
06:18PM 36.3878 -111.8022 251° West 230 265 26,000  Descending Los Angeles Center
06:19PM 36.3597 -111.8731 244° Southwest 229 264 26,100  Climbing Los Angeles Center
06:20PM 36.3375 -111.9653 253° West 233 268 26,100  Level Los Angeles Center
06:21PM 36.3147 -112.0386 249° West 230 265 26,100  Level Los Angeles Center
06:22PM 36.2897 -112.1128 247° West 231 266 26,100  Level Los Angeles Center
06:23PM 36.2711 -112.1703 248° West 229 264 26,100 -60 Level Los Angeles Center
06:24PM 36.2492 -112.2417 249° West 224 258 26,000  Descending Los Angeles Center
06:25PM 36.2200 -112.3311 248° West 231 266 26,100  Climbing Los Angeles Center
06:26PM 36.1914 -112.4192 248° West 230 265 26,000  Descending Los Angeles Center
06:27PM 36.1675 -112.4903 247° West 226 260 26,100  Climbing Los Angeles Center
06:28PM 36.1447 -112.5636 249° West 227 261 26,000 -60 Descending Los Angeles Center
06:29PM 36.1206 -112.6364 248° West 228 262 26,000  Level Los Angeles Center
06:30PM 36.0981 -112.7069 248° West 223 257 26,100  Climbing Los Angeles Center
06:31PM 36.0756 -112.7772 248° West 221 254 26,100  Level Los Angeles Center
06:32PM 36.0464 -112.8617 247° West 223 257 26,100  Level Los Angeles Center
06:33PM 36.0225 -112.9333 248° West 226 260 26,100 -60 Level Los Angeles Center
06:34PM 36.0006 -113.0053 249° West 225 259 26,000 -60 Descending Los Angeles Center
06:35PM 35.9750 -113.0786 247° West 230 265 26,000  Level Los Angeles Center
06:36PM 35.9536 -113.1494 250° West 230 265 26,000  Level Los Angeles Center
06:37PM 35.9250 -113.2369 248° West 232 267 26,100  Climbing Los Angeles Center
06:38PM 35.9006 -113.3064 247° West 226 260 26,100 -60 Level Los Angeles Center
06:39PM 35.8775 -113.3789 249° West 229 264 26,000  Descending Los Angeles Center
06:41PM 35.8519 -113.4475 245° Southwest 224 258 26,100  Climbing Los Angeles Center
06:42PM 35.8217 -113.5153 241° Southwest 226 260 26,100  Level Los Angeles Center
06:43PM 35.7825 -113.5936 238° Southwest 226 260 26,100 -60 Level Los Angeles Center
06:44PM 35.7503 -113.6569 238° Southwest 221 254 26,000  Descending Los Angeles Center
06:45PM 35.7167 -113.7228 238° Southwest 224 258 26,100  Climbing Los Angeles Center
06:46PM 35.6858 -113.7867 239° Southwest 225 259 26,000 -60 Descending Los Angeles Center
06:47PM 35.6533 -113.8514 238° Southwest 225 259 26,000  Level Los Angeles Center
06:48PM 35.6239 -113.9386 247° West 241 277 26,000  Level Los Angeles Center
06:49PM 35.6014 -114.0136 250° West 238 274 26,000  Level Los Angeles Center
06:50PM 35.5758 -114.0875 247° West 237 273 26,000  Level Los Angeles Center
06:51PM 35.5531 -114.1606 249° West 232 267 26,000  Level Los Angeles Center
06:52PM 35.5264 -114.2467 249° West 227 261 26,100  Climbing Los Angeles Center
06:53PM 35.5039 -114.3111 247° West 229 264 26,100  Level Los Angeles Center
06:54PM 35.4767 -114.3992 249° West 230 265 26,100 -60 Level Los Angeles Center
06:55PM 35.4539 -114.4733 249° West 231 266 26,000  Descending Los Angeles Center
06:56PM 35.4317 -114.5456 249° West 227 261 26,100  Climbing Los Angeles Center
06:57PM 35.4069 -114.6206 248° West 236 272 26,000  Descending Los Angeles Center
06:58PM 35.3839 -114.6922 248° West 230 265 26,100  Climbing Los Angeles Center
06:59PM 35.3592 -114.7658 248° West 232 267 26,000 -60 Descending Los Angeles Center
07:00PM 35.3300 -114.8542 248° West 233 268 26,000  Level Los Angeles Center
07:01PM 35.3031 -114.9411 249° West 229 264 26,100  Climbing Los Angeles Center
07:02PM 35.2847 -115.0008 249° West 231 266 26,100 -60 Level Los Angeles Center
07:04PM 35.2550 -115.0872 247° West 230 265 26,000 -240 Descending Los Angeles Center
07:05PM 35.2322 -115.1622 250° West 233 268 25,700 -540 Descending Los Angeles Center
07:06PM 35.2064 -115.2392 248° West 240 276 25,000 -720 Descending Los Angeles Center
07:07PM 35.1836 -115.3103 249° West 252 290 24,300 -840 Descending Los Angeles Center
07:08PM 35.1531 -115.4028 248° West 248 285 23,300 -960 Descending Los Angeles Center
07:09PM 35.1281 -115.4803 248° West 246 283 22,400 -840 Descending Los Angeles Center
07:10PM 35.1031 -115.5561 248° West 243 280 21,600 -780 Descending Los Angeles Center
07:11PM 35.0722 -115.6475 248° West 242 278 20,800 -780 Descending Los Angeles Center
07:12PM 35.0475 -115.7242 249° West 243 280 20,100 -420 Descending Los Angeles Center
07:13PM 35.0222 -115.7967 247° West 237 273 20,000 -300 Descending Los Angeles Center
07:14PM 34.9983 -115.8711 249° West 235 270 19,500 -840 Descending Los Angeles Center
07:15PM 34.9714 -115.9503 247° West 247 284 18,300 -1,140 Descending Los Angeles Center
07:16PM 34.9447 -116.0331 249° West 257 296 17,200 -1,020 Descending Los Angeles Center
07:17PM 34.9106 -116.1278 246° West 257 296 16,200 -600 Descending Los Angeles Center
07:18PM 34.8844 -116.2058 248° West 254 292 16,000 -120 Descending Los Angeles Center
07:19PM 34.8592 -116.2875 249° West 239 275 16,000  Level Los Angeles Center
07:20PM 34.8361 -116.3519 246° West 236 272 16,000  Level Los Angeles Center
07:21PM 34.8106 -116.4256 247° West 235 270 16,000  Level Los Angeles Center
07:22PM 34.7831 -116.4958 245° Southwest 233 268 16,100  Climbing Los Angeles Center
07:23PM 34.7228 -116.5744 227° Southwest 228 262 16,100 -60 Level Los Angeles Center
07:24PM 34.6858 -116.6306 231° Southwest 215 247 16,000 -60 Descending Los Angeles Center
07:25PM 34.6544 -116.6736 228° Southwest 212 244 16,000  Level Los Angeles Center
07:26PM 34.6017 -116.7417 227° Southwest 228 262 16,000 -240 Level Los Angeles Center
07:27PM 34.5494 -116.7997 222° Southwest 233 268 15,600 -600 Descending Los Angeles Center
07:29PM 34.5008 -116.8528 222° Southwest 251 289 14,800 -780 Descending Los Angeles Center
07:30PM 34.4383 -116.9228 223° Southwest 255 293 14,000 -780 Descending Los Angeles Center
07:31PM 34.3886 -116.9797 223° Southwest 248 285 13,300 -780 Descending Los Angeles Center
07:32PM 34.3394 -117.0356 223° Southwest 243 280 12,400 -1,020 Descending Los Angeles Center
07:33PM 34.2919 -117.0875 222° Southwest 233 268 11,300 -1,140 Descending Los Angeles Center
07:34PM 34.2431 -117.1361 219° Southwest 228 262 10,100 -1,020 Descending Los Angeles Center
07:35PM 34.1972 -117.1969 228° Southwest 211 243 9,200 -1,020 Descending Los Angeles Center
07:36PM 34.1556 -117.2458 224° Southwest 209 241 8,000 -1,200 Descending Los Angeles Center
07:37PM 34.1167 -117.2833 219° Southwest 201 231 7,100 -1,260 Descending Southern California TRACON
07:38PM 34.0833 -117.3333 231° Southwest 212 244 5,800 -1,500 Descending Southern California TRACON
07:39PM 34.0333 -117.3667 209° Southwest 174 200 4,200 -1,800 Descending Southern California TRACON
07:39PM 34.0000 -117.3833 203° Southwest 171 197 2,400 -1,380 Descending Southern California TRACON
07:41PM 33.9500 -117.4000 195° South 150 173 1,500 -840 Descending Southern California TRACON
07:43PM 33.9500 -117.4333 220° Southwest  Level FlightAware Approximate
07:50PM 33.9519 -117.4451 220° Southwest  Level Estimated